createdAt,value
2017-02-13T00:00:29.854Z,-3.31
2017-02-13T00:01:29.496Z,-3.33
2017-02-13T00:02:29.869Z,-3.39
2017-02-13T00:03:30.214Z,-3.41
2017-02-13T00:04:44.402Z,-3.38
2017-02-13T00:05:29.917Z,-3.39
2017-02-13T00:06:29.908Z,-3.35
2017-02-13T00:07:29.934Z,-3.36
2017-02-13T00:08:44.451Z,-3.46
2017-02-13T00:09:44.488Z,-3.53
2017-02-13T00:10:29.973Z,-3.36
2017-02-13T00:11:29.975Z,-3.39
2017-02-13T00:12:29.991Z,-3.33
2017-02-13T00:13:30.069Z,-3.33
2017-02-13T00:14:30.057Z,-3.46
2017-02-13T00:15:30.030Z,-3.39
2017-02-13T00:16:30.072Z,-3.49
2017-02-13T00:17:30.055Z,-3.56
2017-02-13T00:18:30.059Z,-3.48
2017-02-13T00:19:30.057Z,-3.54
2017-02-13T00:20:30.144Z,-3.57
2017-02-13T00:21:30.147Z,-3.59
2017-02-13T00:22:30.099Z,-3.54
2017-02-13T00:23:30.113Z,-3.54
2017-02-13T00:24:44.631Z,-3.48
2017-02-13T00:25:30.145Z,-3.48
2017-02-13T00:26:31.007Z,-3.56
2017-02-13T00:27:30.174Z,-3.59
2017-02-13T00:28:30.177Z,-3.54
2017-02-13T00:29:30.180Z,-3.53
2017-02-13T00:30:30.183Z,-3.57
2017-02-13T00:31:30.211Z,-3.62
2017-02-13T00:32:30.218Z,-3.59
2017-02-13T00:33:30.225Z,-3.59
2017-02-13T00:34:30.248Z,-3.56
2017-02-13T00:35:29.916Z,-3.56
2017-02-13T00:36:30.303Z,-3.54
2017-02-13T00:38:30.280Z,-3.72
2017-02-13T00:40:44.821Z,-3.78
2017-02-13T00:41:30.308Z,-3.78
2017-02-13T00:42:30.340Z,-3.85
2017-02-13T00:43:30.357Z,-3.85
2017-02-13T00:44:30.356Z,-3.75
2017-02-13T00:45:30.364Z,-3.9
2017-02-13T00:46:30.428Z,-3.85
2017-02-13T00:47:30.397Z,-3.79
2017-02-13T00:48:30.405Z,-3.83
2017-02-13T00:49:44.918Z,-3.79
2017-02-13T00:50:30.422Z,-3.81
2017-02-13T00:51:30.429Z,-3.83
2017-02-13T00:52:30.458Z,-3.9
2017-02-13T00:53:30.456Z,-3.83
2017-02-13T00:54:30.471Z,-3.85
2017-02-13T00:55:44.997Z,-3.82
2017-02-13T00:56:30.678Z,-3.85
2017-02-13T00:57:30.494Z,-3.9
2017-02-13T00:58:30.512Z,-3.78
2017-02-13T00:59:30.124Z,-3.86
2017-02-13T01:00:30.573Z,-3.75
2017-02-13T01:01:30.546Z,-3.66
2017-02-13T01:02:30.583Z,-3.78
2017-02-13T01:03:30.567Z,-3.67
2017-02-13T01:04:30.639Z,-3.9
2017-02-13T01:05:30.853Z,-3.78
2017-02-13T01:06:30.624Z,-3.85
2017-02-13T01:07:30.624Z,-3.85
2017-02-13T01:08:30.242Z,-3.9
2017-02-13T01:09:30.641Z,-4
2017-02-13T01:10:30.253Z,-4.01
2017-02-13T01:12:30.667Z,-4.22
2017-02-13T01:13:30.670Z,-4.18
2017-02-13T01:14:30.705Z,-4.07
2017-02-13T01:15:45.215Z,-4.06
2017-02-13T01:16:30.723Z,-4.1
2017-02-13T01:17:30.791Z,-4.1
2017-02-13T01:18:30.737Z,-4.15
2017-02-13T01:19:30.740Z,-3.99
2017-02-13T01:20:30.765Z,-4.1
2017-02-13T01:21:30.766Z,-4.1
2017-02-13T01:23:30.792Z,-4.14
2017-02-13T01:24:30.790Z,-4.06
2017-02-13T01:25:30.811Z,-4.06
2017-02-13T01:26:30.886Z,-4.06
2017-02-13T01:27:45.339Z,-3.99
2017-02-13T01:28:30.845Z,-4.14
2017-02-13T01:29:30.864Z,-4.1
2017-02-13T01:30:30.875Z,-4.06
2017-02-13T01:31:30.869Z,-4.11
2017-02-13T01:32:30.876Z,-4.03
2017-02-13T01:33:45.414Z,-3.94
2017-02-13T01:34:31.166Z,-3.96
2017-02-13T01:35:31.084Z,-4.06
2017-02-13T01:36:30.938Z,-4.06
2017-02-13T01:37:30.934Z,-3.99
2017-02-13T01:38:30.979Z,-4.17
2017-02-13T01:39:30.967Z,-4.15
2017-02-13T01:40:45.503Z,-4.15
2017-02-13T01:41:30.996Z,-4.12
2017-02-13T01:42:31.006Z,-4.06
2017-02-13T01:43:45.518Z,-4.07
2017-02-13T01:44:31.031Z,-4.1
2017-02-13T01:45:31.032Z,-4.06
2017-02-13T01:46:31.041Z,-4.12
2017-02-13T01:47:31.054Z,-4.15
2017-02-13T01:48:31.367Z,-4.1
2017-02-13T01:49:31.080Z,-4.17
2017-02-13T01:50:30.698Z,-4.12
2017-02-13T01:51:45.658Z,-4.1
2017-02-13T01:52:31.129Z,-4.11
2017-02-13T01:53:31.130Z,-4.17
2017-02-13T01:54:31.130Z,-4.06
2017-02-13T01:55:31.202Z,-4.04
2017-02-13T01:56:31.222Z,-4.18
2017-02-13T01:57:31.164Z,-4.22
2017-02-13T01:58:31.179Z,-4.15
2017-02-13T01:59:45.860Z,-4.07
2017-02-13T02:00:31.250Z,-4.1
2017-02-13T02:01:31.224Z,-4.14
2017-02-13T02:02:31.225Z,-4.15
2017-02-13T02:03:31.228Z,-4.21
2017-02-13T02:04:31.256Z,-4.2
2017-02-13T02:05:31.258Z,-4.22
2017-02-13T02:06:31.268Z,-4.18
2017-02-13T02:07:31.264Z,-4.25
2017-02-13T02:08:31.328Z,-4.25
2017-02-13T02:09:31.345Z,-4.24
2017-02-13T02:10:31.359Z,-4.24
2017-02-13T02:11:31.321Z,-4.11
2017-02-13T02:12:31.331Z,-4.17
2017-02-13T02:13:30.962Z,-4.25
2017-02-13T02:14:30.960Z,-4.22
2017-02-13T02:15:45.892Z,-4.15
2017-02-13T02:17:45.901Z,-4.25
2017-02-13T02:18:31.393Z,-4.21
2017-02-13T02:19:31.408Z,-4.21
2017-02-13T02:20:31.428Z,-4.35
2017-02-13T02:21:31.050Z,-4.3
2017-02-13T02:22:31.437Z,-4.22
2017-02-13T02:23:31.461Z,-4.24
2017-02-13T02:24:31.074Z,-4.2
2017-02-13T02:25:31.478Z,-4.22
2017-02-13T02:26:31.494Z,-4.2
2017-02-13T02:27:31.501Z,-4.33
2017-02-13T02:28:46.027Z,-4.29
2017-02-13T02:30:46.042Z,-4.36
2017-02-13T02:31:31.544Z,-4.38
2017-02-13T02:32:31.540Z,-4.38
2017-02-13T02:34:31.568Z,-4.39
2017-02-13T02:36:31.603Z,-4.3
2017-02-13T02:37:31.604Z,-4.22
2017-02-13T02:39:31.632Z,-4.35
2017-02-13T02:40:31.651Z,-4.36
2017-02-13T02:41:31.257Z,-4.35
2017-02-13T02:42:31.651Z,-4.38
2017-02-13T02:43:31.678Z,-4.42
2017-02-13T02:44:31.689Z,-4.39
2017-02-13T02:45:31.703Z,-4.33
2017-02-13T02:51:31.763Z,-4.39
2017-02-13T02:52:31.773Z,-4.38
2017-02-13T02:53:31.791Z,-4.51
2017-02-13T02:54:31.801Z,-4.42
2017-02-13T02:55:31.806Z,-4.49
2017-02-13T02:56:31.814Z,-4.5
2017-02-13T02:57:31.824Z,-4.51
2017-02-13T02:58:31.836Z,-4.53
2017-02-13T02:59:31.861Z,-4.51
2017-02-13T03:00:31.865Z,-4.56
2017-02-13T03:01:31.853Z,-4.43
2017-02-13T03:02:46.383Z,-4.47
2017-02-13T03:03:31.884Z,-4.54
2017-02-13T03:04:31.893Z,-4.53
2017-02-13T03:05:31.931Z,-4.42
2017-02-13T03:06:31.917Z,-4.42
2017-02-13T03:07:31.964Z,-4.42
2017-02-13T03:08:31.942Z,-4.54
2017-02-13T03:09:31.549Z,-4.56
2017-02-13T03:10:31.950Z,-4.49
2017-02-13T03:11:46.499Z,-4.49
2017-02-13T03:12:46.108Z,-4.54
2017-02-13T03:13:31.981Z,-4.5
2017-02-13T03:14:32.026Z,-4.53
2017-02-13T03:15:32.008Z,-4.54
2017-02-13T03:16:46.545Z,-4.54
2017-02-13T03:17:31.642Z,-4.57
2017-02-13T03:18:46.568Z,-4.65
2017-02-13T03:19:32.063Z,-4.65
2017-02-13T03:21:32.074Z,-4.5
2017-02-13T03:22:32.111Z,-4.51
2017-02-13T03:23:32.114Z,-4.54
2017-02-13T03:24:32.111Z,-4.51
2017-02-13T03:25:32.121Z,-4.54
2017-02-13T03:26:32.137Z,-4.57
2017-02-13T03:27:32.140Z,-4.5
2017-02-13T03:28:32.174Z,-4.54
2017-02-13T03:29:32.158Z,-4.68
2017-02-13T03:30:32.172Z,-4.56
2017-02-13T03:31:32.184Z,-4.54
2017-02-13T03:32:32.190Z,-4.53
2017-02-13T03:33:32.208Z,-4.51
2017-02-13T03:34:46.733Z,-4.63
2017-02-13T03:35:32.221Z,-4.65
2017-02-13T03:36:32.254Z,-4.65
2017-02-13T03:37:32.261Z,-4.6
2017-02-13T03:38:32.261Z,-4.65
2017-02-13T03:39:32.284Z,-4.56
2017-02-13T03:40:32.281Z,-4.67
2017-02-13T03:41:32.290Z,-4.67
2017-02-13T03:42:32.301Z,-4.81
2017-02-13T03:44:32.337Z,-4.77
2017-02-13T03:45:32.338Z,-4.68
2017-02-13T03:46:31.966Z,-4.63
2017-02-13T03:47:32.373Z,-4.75
2017-02-13T03:48:31.982Z,-4.68
2017-02-13T03:49:32.376Z,-4.75
2017-02-13T03:50:46.907Z,-4.68
2017-02-13T03:52:32.409Z,-4.71
2017-02-13T03:53:32.428Z,-4.68
2017-02-13T03:55:32.442Z,-4.69
2017-02-13T03:56:32.458Z,-4.69
2017-02-13T03:57:32.472Z,-4.67
2017-02-13T03:58:32.471Z,-4.69
2017-02-13T03:59:32.479Z,-4.72
2017-02-13T04:00:32.505Z,-4.77
2017-02-13T04:01:32.511Z,-4.68
2017-02-13T04:03:32.528Z,-4.81
2017-02-13T04:04:32.539Z,-4.77
2017-02-13T04:05:47.065Z,-4.79
2017-02-13T04:06:32.165Z,-4.74
2017-02-13T04:07:32.169Z,-4.77
2017-02-13T04:08:32.193Z,-4.71
2017-02-13T04:09:47.105Z,-4.75
2017-02-13T04:10:32.599Z,-4.77
2017-02-13T04:11:47.127Z,-4.79
2017-02-13T04:12:32.628Z,-4.75
2017-02-13T04:14:32.637Z,-4.85
2017-02-13T04:15:32.652Z,-4.81
2017-02-13T04:16:32.669Z,-4.89
2017-02-13T04:17:32.687Z,-4.96
2017-02-13T04:18:32.680Z,-4.93
2017-02-13T04:19:32.707Z,-4.9
2017-02-13T04:20:32.716Z,-4.89
2017-02-13T04:21:32.723Z,-4.85
2017-02-13T04:22:32.729Z,-4.87
2017-02-13T04:23:32.339Z,-4.89
2017-02-13T04:24:32.756Z,-4.87
2017-02-13T04:25:32.375Z,-4.95
2017-02-13T04:26:32.767Z,-4.85
2017-02-13T04:27:32.782Z,-4.97
2017-02-13T04:28:32.797Z,-5.03
2017-02-13T04:29:32.798Z,-4.96
2017-02-13T04:30:32.798Z,-4.93
2017-02-13T04:31:32.822Z,-4.93
2017-02-13T04:32:32.841Z,-4.95
2017-02-13T04:33:32.443Z,-4.95
2017-02-13T04:34:47.359Z,-4.99
2017-02-13T04:35:32.880Z,-5.1
2017-02-13T04:36:32.878Z,-5.1
2017-02-13T04:37:47.403Z,-4.97
2017-02-13T04:38:32.888Z,-4.97
2017-02-13T04:39:47.423Z,-4.86
2017-02-13T04:40:47.453Z,-4.95
2017-02-13T04:41:32.934Z,-4.97
2017-02-13T04:42:32.930Z,-4.95
2017-02-13T04:43:32.944Z,-4.92
2017-02-13T04:44:32.955Z,-5.03
2017-02-13T04:45:32.974Z,-5
2017-02-13T04:46:32.998Z,-4.99
2017-02-13T04:47:32.601Z,-5.07
2017-02-13T04:48:32.995Z,-5.04
2017-02-13T04:49:33.009Z,-5.1
2017-02-13T04:50:33.058Z,-5.03
2017-02-13T04:52:33.057Z,-5.1
2017-02-13T04:53:47.618Z,-5.11
2017-02-13T04:54:33.064Z,-5.06
2017-02-13T04:55:33.073Z,-5.07
2017-02-13T04:56:33.095Z,-5.14
2017-02-13T04:57:33.094Z,-5.08
2017-02-13T04:58:33.097Z,-5
2017-02-13T04:59:33.106Z,-4.96
2017-02-13T05:00:33.133Z,-4.99
2017-02-13T05:01:33.144Z,-4.99
2017-02-13T05:03:33.162Z,-4.97
2017-02-13T05:04:47.679Z,-4.99
2017-02-13T05:05:33.185Z,-4.95
2017-02-13T05:06:33.206Z,-5.06
2017-02-13T05:07:33.187Z,-5.13
2017-02-13T05:08:33.206Z,-5.04
2017-02-13T05:09:47.727Z,-5.13
2017-02-13T05:10:33.228Z,-5.06
2017-02-13T05:11:33.236Z,-5.13
2017-02-13T05:12:33.251Z,-5.13
2017-02-13T05:13:33.463Z,-5.11
2017-02-13T05:14:47.784Z,-5.13
2017-02-13T05:15:33.278Z,-5.07
2017-02-13T05:16:33.289Z,-5.14
2017-02-13T05:17:33.312Z,-5.1
2017-02-13T05:18:33.324Z,-5.14
2017-02-13T05:19:33.318Z,-5.25
2017-02-13T05:21:33.340Z,-5.14
2017-02-13T05:22:33.367Z,-5.14
2017-02-13T05:23:33.369Z,-5.13
2017-02-13T05:24:33.381Z,-5.11
2017-02-13T05:25:47.907Z,-5.18
2017-02-13T05:26:33.393Z,-5.14
2017-02-13T05:27:33.402Z,-5.32
2017-02-13T05:28:33.406Z,-5.19
2017-02-13T05:29:33.432Z,-5.3
2017-02-13T05:30:33.445Z,-5.25
2017-02-13T05:31:33.444Z,-5.26
2017-02-13T05:32:33.444Z,-5.32
2017-02-13T05:33:33.478Z,-5.35
2017-02-13T05:34:33.477Z,-5.35
2017-02-13T05:35:33.496Z,-5.29
2017-02-13T05:36:33.495Z,-5.29
2017-02-13T05:37:33.811Z,-5.27
2017-02-13T05:38:33.529Z,-5.19
2017-02-13T05:39:33.532Z,-5.26
2017-02-13T05:40:48.058Z,-5.3
2017-02-13T05:41:33.542Z,-5.32
2017-02-13T05:42:33.576Z,-5.27
2017-02-13T05:43:33.580Z,-5.25
2017-02-13T05:44:33.598Z,-5.37
2017-02-13T05:45:33.596Z,-5.39
2017-02-13T05:46:33.213Z,-5.37
2017-02-13T05:47:33.615Z,-5.41
2017-02-13T05:48:33.638Z,-5.27
2017-02-13T05:49:33.646Z,-5.3
2017-02-13T05:50:33.642Z,-5.41
2017-02-13T05:51:48.180Z,-5.41
2017-02-13T05:52:33.672Z,-5.35
2017-02-13T05:53:33.690Z,-5.33
2017-02-13T05:54:33.697Z,-5.27
2017-02-13T05:55:33.711Z,-5.32
2017-02-13T05:56:33.706Z,-5.25
2017-02-13T05:57:33.711Z,-5.26
2017-02-13T05:58:33.736Z,-5.26
2017-02-13T05:59:33.752Z,-5.46
2017-02-13T06:00:33.754Z,-5.3
2017-02-13T06:01:33.766Z,-5.27
2017-02-13T06:02:33.761Z,-5.37
2017-02-13T06:04:48.301Z,-5.29
2017-02-13T06:05:33.798Z,-5.29
2017-02-13T06:06:33.420Z,-5.44
2017-02-13T06:07:33.831Z,-5.36
2017-02-13T06:08:48.337Z,-5.37
2017-02-13T06:09:33.831Z,-5.39
2017-02-13T06:10:33.470Z,-5.36
2017-02-13T06:11:33.480Z,-5.41
2017-02-13T06:12:48.390Z,-5.37
2017-02-13T06:13:33.490Z,-5.3
2017-02-13T06:14:33.498Z,-5.26
2017-02-13T06:15:48.421Z,-5.3
2017-02-13T06:16:33.903Z,-5.22
2017-02-13T06:17:33.534Z,-5.36
2017-02-13T06:18:33.935Z,-5.33
2017-02-13T06:19:33.953Z,-5.35
2017-02-13T06:20:33.975Z,-5.39
2017-02-13T06:21:33.984Z,-5.37
2017-02-13T06:22:33.980Z,-5.39
2017-02-13T06:23:33.598Z,-5.32
2017-02-13T06:24:34.008Z,-5.29
2017-02-13T06:25:34.015Z,-5.33
2017-02-13T06:26:34.035Z,-5.46
2017-02-13T06:27:34.026Z,-5.39
2017-02-13T06:28:48.546Z,-5.47
2017-02-13T06:29:34.047Z,-5.43
2017-02-13T06:30:33.679Z,-5.5
2017-02-13T06:31:34.071Z,-5.48
2017-02-13T06:32:34.094Z,-5.47
2017-02-13T06:33:34.098Z,-5.36
2017-02-13T06:34:33.712Z,-5.33
2017-02-13T06:35:34.120Z,-5.37
2017-02-13T06:36:34.123Z,-5.46
2017-02-13T06:37:33.734Z,-5.47
2017-02-13T06:38:34.139Z,-5.36
2017-02-13T06:39:34.155Z,-5.39
2017-02-13T06:40:34.159Z,-5.44
2017-02-13T06:41:34.174Z,-5.46
2017-02-13T06:42:34.187Z,-5.36
2017-02-13T06:43:33.798Z,-5.47
2017-02-13T06:44:48.705Z,-5.51
2017-02-13T06:45:34.213Z,-5.46
2017-02-13T06:46:34.213Z,-5.48
2017-02-13T06:47:34.221Z,-5.46
2017-02-13T06:48:33.842Z,-5.44
2017-02-13T06:49:34.273Z,-5.35
2017-02-13T06:50:34.266Z,-5.37
2017-02-13T06:51:34.276Z,-5.41
2017-02-13T06:53:34.311Z,-5.47
2017-02-13T06:54:34.311Z,-5.32
2017-02-13T06:55:34.320Z,-5.29
2017-02-13T06:56:34.331Z,-5.35
2017-02-13T06:58:33.973Z,-5.33
2017-02-13T06:59:33.983Z,-5.46
2017-02-13T07:00:48.891Z,-5.33
2017-02-13T07:01:34.376Z,-5.35
2017-02-13T07:02:34.378Z,-5.3
2017-02-13T07:03:34.402Z,-5.25
2017-02-13T07:04:34.413Z,-5.14
2017-02-13T07:05:34.433Z,-5.23
2017-02-13T07:06:48.957Z,-5.25
2017-02-13T07:07:48.954Z,-5.18
2017-02-13T07:09:34.456Z,-5.17
2017-02-13T07:10:34.468Z,-5.14
2017-02-13T07:11:34.487Z,-5.1
2017-02-13T07:12:34.498Z,-5.1
2017-02-13T07:13:34.552Z,-5.13
2017-02-13T07:14:34.524Z,-5.11
2017-02-13T07:15:49.038Z,-5.07
2017-02-13T07:16:34.173Z,-5.13
2017-02-13T07:17:34.566Z,-4.96
2017-02-13T07:18:34.579Z,-4.96
2017-02-13T07:19:34.563Z,-4.85
2017-02-13T07:20:34.587Z,-4.95
2017-02-13T07:21:34.602Z,-4.9
2017-02-13T07:22:34.609Z,-4.81
2017-02-13T07:23:34.642Z,-4.83
2017-02-13T07:24:34.613Z,-4.78
2017-02-13T07:25:34.633Z,-4.77
2017-02-13T07:26:34.651Z,-4.81
2017-02-13T07:27:34.656Z,-4.75
2017-02-13T07:28:34.666Z,-4.67
2017-02-13T07:29:34.667Z,-4.68
2017-02-13T07:31:34.702Z,-4.61
2017-02-13T07:32:34.704Z,-4.53
2017-02-13T07:33:34.726Z,-4.49
2017-02-13T07:34:34.338Z,-4.38
2017-02-13T07:35:34.741Z,-4.38
2017-02-13T07:36:34.788Z,-4.22
2017-02-13T07:37:34.773Z,-4.22
2017-02-13T07:38:34.787Z,-4.14
2017-02-13T07:39:34.797Z,-4.04
2017-02-13T07:40:34.821Z,-4.07
2017-02-13T07:41:34.809Z,-4.1
2017-02-13T07:42:34.831Z,-4.11
2017-02-13T07:43:34.850Z,-4.01
2017-02-13T07:44:34.854Z,-4.01
2017-02-13T07:46:34.900Z,-3.97
2017-02-13T07:47:49.416Z,-3.91
2017-02-13T07:48:34.914Z,-3.86
2017-02-13T07:49:34.938Z,-3.78
2017-02-13T07:50:34.928Z,-3.75
2017-02-13T07:51:34.947Z,-3.78
2017-02-13T07:52:34.957Z,-3.72
2017-02-13T07:53:34.963Z,-3.6
2017-02-13T07:54:35.002Z,-3.57
2017-02-13T07:55:35.006Z,-3.59
2017-02-13T07:56:34.616Z,-3.43
2017-02-13T07:57:35.024Z,-3.41
2017-02-13T07:58:35.046Z,-3.43
2017-02-13T07:59:35.042Z,-3.48
2017-02-13T08:00:35.078Z,-3.41
2017-02-13T08:01:35.064Z,-3.31
2017-02-13T08:02:35.124Z,-3.38
2017-02-13T08:03:49.627Z,-3.38
2017-02-13T08:04:35.119Z,-3.36
2017-02-13T08:05:35.133Z,-3.23
2017-02-13T08:06:35.147Z,-3.28
2017-02-13T08:07:34.756Z,-3.28
2017-02-13T08:08:35.158Z,-3.23
2017-02-13T08:09:35.176Z,-3.02
2017-02-13T08:10:35.203Z,-3.12
2017-02-13T08:11:35.203Z,-3.1
2017-02-13T08:12:35.228Z,-3.07
2017-02-13T08:13:35.225Z,-3.03
2017-02-13T08:14:35.255Z,-3
2017-02-13T08:15:35.256Z,-2.84
2017-02-13T08:17:35.303Z,-2.97
2017-02-13T08:18:35.295Z,-3.07
2017-02-13T08:19:49.833Z,-2.86
2017-02-13T08:20:35.318Z,-2.88
2017-02-13T08:21:35.337Z,-2.84
2017-02-13T08:22:35.368Z,-2.78
2017-02-13T08:23:35.353Z,-2.84
2017-02-13T08:24:49.893Z,-2.88
2017-02-13T08:25:35.390Z,-2.84
2017-02-13T08:26:35.421Z,-2.79
2017-02-13T08:27:35.439Z,-2.78
2017-02-13T08:28:35.430Z,-2.81
2017-02-13T08:29:35.441Z,-2.73
2017-02-13T08:30:49.968Z,-2.73
2017-02-13T08:31:35.473Z,-2.81
2017-02-13T08:32:35.494Z,-2.81
2017-02-13T08:33:35.496Z,-2.73
2017-02-13T08:34:35.500Z,-2.58
2017-02-13T08:35:50.045Z,-2.49
2017-02-13T08:36:35.534Z,-2.46
2017-02-13T08:38:35.570Z,-2.35
2017-02-13T08:39:35.595Z,-2.42
2017-02-13T08:40:35.606Z,-2.43
2017-02-13T08:41:35.590Z,-2.46
2017-02-13T08:42:35.624Z,-2.58
2017-02-13T08:43:35.649Z,-2.55
2017-02-13T08:44:35.677Z,-2.4
2017-02-13T08:46:35.680Z,-2.26
2017-02-13T08:47:35.702Z,-2.3
2017-02-13T08:48:35.689Z,-2.24
2017-02-13T08:49:35.717Z,-2.13
2017-02-13T08:50:50.243Z,-2.1
2017-02-13T08:51:35.743Z,-2.12
2017-02-13T08:52:35.753Z,-2.1
2017-02-13T08:53:35.766Z,-2.13
2017-02-13T08:54:35.770Z,-2.13
2017-02-13T08:55:35.809Z,-2.13
2017-02-13T08:56:35.814Z,-1.92
2017-02-13T08:57:35.819Z,-1.92
2017-02-13T08:58:35.844Z,-1.94
2017-02-13T08:59:35.860Z,-1.84
2017-02-13T09:00:35.860Z,-1.84
2017-02-13T09:01:35.879Z,-1.72
2017-02-13T09:02:50.400Z,-1.66
2017-02-13T09:03:35.903Z,-1.64
2017-02-13T09:04:35.901Z,-1.66
2017-02-13T09:05:35.918Z,-1.49
2017-02-13T09:07:35.575Z,-1.51
2017-02-13T09:08:36.036Z,-1.41
2017-02-13T09:09:35.985Z,-1.59
2017-02-13T09:10:36.020Z,-1.67
2017-02-13T09:11:50.526Z,-1.51
2017-02-13T09:12:36.014Z,-1.45
2017-02-13T09:13:36.051Z,-1.51
2017-02-13T09:14:36.043Z,-1.41
2017-02-13T09:15:36.093Z,-1.38
2017-02-13T09:16:36.076Z,-1.27
2017-02-13T09:17:50.603Z,-1.22
2017-02-13T09:18:36.127Z,-1.23
2017-02-13T09:19:36.125Z,-1.4
2017-02-13T09:20:50.659Z,-1.4
2017-02-13T09:21:36.151Z,-1.31
2017-02-13T09:23:36.189Z,-1.31
2017-02-13T09:24:36.208Z,-1.33
2017-02-13T09:25:36.215Z,-1.12
2017-02-13T09:26:50.738Z,-1.07
2017-02-13T09:27:36.225Z,-1.04
2017-02-13T09:28:36.270Z,-1.02
2017-02-13T09:29:36.278Z,-1.04
2017-02-13T09:32:36.297Z,-0.86
2017-02-13T09:33:50.849Z,-0.94
2017-02-13T09:34:36.330Z,-0.86
2017-02-13T09:35:36.351Z,-0.94
2017-02-13T09:36:36.372Z,-0.92
2017-02-13T09:37:36.387Z,-0.98
2017-02-13T09:38:50.901Z,-0.95
2017-02-13T09:39:36.400Z,-0.95
2017-02-13T09:40:36.423Z,-0.97
2017-02-13T09:41:36.440Z,-1.1
2017-02-13T09:42:36.463Z,-1.13
2017-02-13T09:43:36.462Z,-0.98
2017-02-13T09:44:36.491Z,-0.92
2017-02-13T09:45:36.098Z,-0.8
2017-02-13T09:46:36.109Z,-0.82
2017-02-13T09:47:36.523Z,-0.8
2017-02-13T09:48:36.545Z,-0.62
2017-02-13T09:49:36.550Z,-0.67
2017-02-13T09:50:36.586Z,-0.6
2017-02-13T09:51:36.210Z,-0.62
2017-02-13T09:53:36.599Z,-0.54
2017-02-13T09:54:51.142Z,-0.61
2017-02-13T09:55:36.633Z,-0.64
2017-02-13T09:56:36.651Z,-0.61
2017-02-13T09:57:36.669Z,-0.65
2017-02-13T09:58:51.199Z,-0.6
2017-02-13T09:59:36.302Z,-0.54
2017-02-13T10:00:36.706Z,-0.44
2017-02-13T10:01:36.740Z,-0.54
2017-02-13T10:02:36.741Z,-0.44
2017-02-13T10:03:36.365Z,-0.34
2017-02-13T10:04:36.765Z,-0.22
2017-02-13T10:05:36.778Z,-0.14
2017-02-13T10:06:36.811Z,-0.16
2017-02-13T10:07:36.818Z,-0.15
2017-02-13T10:08:36.837Z,-0.1
2017-02-13T10:09:36.830Z,-0.14
2017-02-13T10:10:51.386Z,-0.01
2017-02-13T10:11:36.494Z,0.03
2017-02-13T10:12:36.893Z,0.26
2017-02-13T10:13:36.904Z,0.1
2017-02-13T10:14:36.543Z,0.31
2017-02-13T10:15:36.937Z,0.17
2017-02-13T10:16:36.951Z,0.17
2017-02-13T10:17:36.581Z,0.11
2017-02-13T10:18:36.587Z,0.18
2017-02-13T10:19:36.605Z,0.21
2017-02-13T10:20:36.643Z,0.15
2017-02-13T10:21:37.040Z,0.23
2017-02-13T10:22:36.657Z,0.18
2017-02-13T10:23:37.051Z,0.17
2017-02-13T10:24:37.056Z,0.28
2017-02-13T10:25:51.605Z,0.39
2017-02-13T10:26:37.094Z,0.33
2017-02-13T10:27:36.717Z,0.38
2017-02-13T10:28:36.726Z,0.39
2017-02-13T10:29:37.148Z,0.38
2017-02-13T10:30:36.770Z,0.36
2017-02-13T10:33:37.224Z,0.32
2017-02-13T10:34:51.348Z,0.18
2017-02-13T10:35:37.246Z,0.18
2017-02-13T10:36:36.848Z,0.11
2017-02-13T10:37:36.871Z,0.23
2017-02-13T10:38:36.884Z,0.32
2017-02-13T10:39:37.305Z,0.36
2017-02-13T10:40:37.304Z,0.23
2017-02-13T10:41:37.332Z,0.38
2017-02-13T10:42:37.356Z,0.35
2017-02-13T10:43:37.360Z,0.33
2017-02-13T10:44:36.982Z,0.42
2017-02-13T10:45:37.380Z,0.49
2017-02-13T10:46:37.009Z,0.5
2017-02-13T10:47:37.426Z,0.39
2017-02-13T10:48:37.063Z,0.36
2017-02-13T10:49:37.445Z,0.38
2017-02-13T10:50:37.453Z,0.53
2017-02-13T10:51:37.474Z,0.6
2017-02-13T10:52:37.489Z,0.6
2017-02-13T10:53:37.502Z,0.6
2017-02-13T10:54:37.506Z,0.58
2017-02-13T10:55:37.148Z,0.6
2017-02-13T10:56:37.549Z,0.53
2017-02-13T10:58:37.673Z,0.32
2017-02-13T10:59:37.591Z,0.41
2017-02-13T11:00:37.654Z,0.61
2017-02-13T11:01:37.610Z,0.62
2017-02-13T11:02:37.631Z,0.72
2017-02-13T11:03:37.267Z,0.86
2017-02-13T11:06:37.694Z,0.93
2017-02-13T11:07:37.711Z,0.9
2017-02-13T11:08:37.722Z,0.97
2017-02-13T11:09:37.741Z,1.04
2017-02-13T11:10:37.737Z,1.16
2017-02-13T11:11:37.755Z,1.12
2017-02-13T11:12:37.788Z,1.11
2017-02-13T11:14:37.808Z,1.05
2017-02-13T11:16:37.832Z,1.12
2017-02-13T11:17:37.859Z,1
2017-02-13T11:18:37.870Z,1.05
2017-02-13T11:19:37.889Z,1.14
2017-02-13T11:20:37.903Z,1.26
2017-02-13T11:21:52.429Z,1.14
2017-02-13T11:22:37.914Z,1.09
2017-02-13T11:23:37.944Z,1.14
2017-02-13T11:24:37.952Z,1.02
2017-02-13T11:25:37.971Z,1.14
2017-02-13T11:26:37.983Z,1.06
2017-02-13T11:27:37.994Z,1.3
2017-02-13T11:28:37.994Z,1.3
2017-02-13T11:29:52.538Z,1.45
2017-02-13T11:31:38.052Z,1.48
2017-02-13T11:32:38.079Z,1.5
2017-02-13T11:33:52.591Z,1.37
2017-02-13T11:34:38.099Z,1.54
2017-02-13T11:35:38.114Z,1.51
2017-02-13T11:36:38.133Z,1.41
2017-02-13T11:37:38.125Z,1.3
2017-02-13T11:38:38.165Z,1.47
2017-02-13T11:39:38.170Z,1.47
2017-02-13T11:40:38.194Z,1.4
2017-02-13T11:41:38.220Z,1.42
2017-02-13T11:42:38.212Z,1.58
2017-02-13T11:43:38.213Z,1.6
2017-02-13T11:44:38.243Z,1.59
2017-02-13T11:45:52.776Z,1.66
2017-02-13T11:46:38.268Z,1.63
2017-02-13T11:47:52.798Z,1.62
2017-02-13T11:48:38.300Z,1.6
2017-02-13T11:49:38.300Z,1.55
2017-02-13T11:50:52.840Z,1.54
2017-02-13T11:51:38.331Z,1.5
2017-02-13T11:52:38.350Z,1.48
2017-02-13T11:53:38.383Z,1.54
2017-02-13T11:54:38.386Z,1.51
2017-02-13T11:55:38.400Z,1.6
2017-02-13T11:56:38.420Z,1.63
2017-02-13T11:57:38.456Z,1.55
2017-02-13T11:58:38.438Z,1.6
2017-02-13T11:59:38.474Z,1.66
2017-02-13T12:00:52.987Z,1.84
2017-02-13T12:01:38.494Z,1.73
2017-02-13T12:02:38.498Z,1.8
2017-02-13T12:03:38.539Z,1.83
2017-02-13T12:04:38.537Z,1.86
2017-02-13T12:05:38.544Z,2.02
2017-02-13T12:06:38.562Z,1.98
2017-02-13T12:07:38.590Z,1.98
2017-02-13T12:08:38.652Z,1.93
2017-02-13T12:09:38.608Z,1.81
2017-02-13T12:10:38.681Z,1.98
2017-02-13T12:11:38.644Z,1.98
2017-02-13T12:13:38.674Z,2.1
2017-02-13T12:14:38.671Z,2.14
2017-02-13T12:15:38.698Z,2.1
2017-02-13T12:16:38.727Z,2.16
2017-02-13T12:17:38.737Z,2.14
2017-02-13T12:18:53.257Z,2.17
2017-02-13T12:19:38.749Z,2.16
2017-02-13T12:20:38.790Z,2.09
2017-02-13T12:21:38.772Z,2.2
2017-02-13T12:22:38.793Z,2.3
2017-02-13T12:23:38.815Z,2.31
2017-02-13T12:25:38.857Z,2.38
2017-02-13T12:26:53.386Z,2.45
2017-02-13T12:27:38.873Z,2.45
2017-02-13T12:28:38.883Z,2.35
2017-02-13T12:29:38.911Z,2.46
2017-02-13T12:31:38.940Z,2.45
2017-02-13T12:32:53.458Z,2.52
2017-02-13T12:33:39.003Z,2.45
2017-02-13T12:34:38.985Z,2.45
2017-02-13T12:35:39.011Z,2.52
2017-02-13T12:36:39.036Z,2.48
2017-02-13T12:37:39.026Z,2.48
2017-02-13T12:38:39.069Z,2.49
2017-02-13T12:39:39.051Z,2.56
2017-02-13T12:40:39.092Z,2.57
2017-02-13T12:41:39.096Z,2.57
2017-02-13T12:42:39.108Z,2.69
2017-02-13T12:43:39.177Z,2.64
2017-02-13T12:45:36.821Z,2.69
2017-02-13T12:45:47.468Z,2.67
2017-02-13T12:46:47.468Z,2.75
2017-02-13T12:47:47.490Z,2.74
2017-02-13T12:48:47.503Z,2.78
2017-02-13T12:49:47.518Z,2.74
2017-02-13T12:50:47.548Z,2.9
2017-02-13T12:52:02.075Z,2.85
2017-02-13T12:52:47.579Z,2.82
2017-02-13T12:53:47.193Z,2.85
2017-02-13T12:54:47.603Z,2.77
2017-02-13T12:56:47.625Z,2.72
2017-02-13T12:57:47.640Z,2.72
2017-02-13T12:58:47.649Z,2.69
2017-02-13T12:59:47.667Z,2.79
2017-02-13T13:00:47.717Z,2.82
2017-02-13T13:01:47.697Z,2.74
2017-02-13T13:03:02.484Z,2.69
2017-02-13T13:03:47.732Z,2.75
2017-02-13T13:07:47.792Z,2.35
2017-02-13T13:08:47.807Z,2.34
2017-02-13T13:11:02.346Z,2.36
2017-02-13T13:11:47.853Z,2.39
2017-02-13T13:12:47.862Z,2.41
2017-02-13T13:14:02.402Z,2.31
2017-02-13T13:14:47.907Z,2.45
2017-02-13T13:15:47.904Z,2.41
2017-02-13T13:16:47.936Z,2.38
2017-02-13T13:17:47.945Z,2.48
2017-02-13T13:19:02.478Z,2.34
2017-02-13T13:19:47.993Z,2.38
2017-02-13T13:20:48.010Z,2.41
2017-02-13T13:21:48.010Z,2.42
2017-02-13T13:24:02.544Z,2.53
2017-02-13T13:24:48.039Z,2.52
2017-02-13T13:25:48.073Z,2.46
2017-02-13T13:26:48.084Z,2.38
2017-02-13T13:28:02.620Z,2.39
2017-02-13T13:28:48.103Z,2.35
2017-02-13T13:30:02.250Z,2.36
2017-02-13T13:30:48.133Z,2.35
2017-02-13T13:32:02.674Z,2.31
2017-02-13T13:32:48.169Z,2.28
2017-02-13T13:33:48.187Z,2.31
2017-02-13T13:34:48.216Z,2.42
2017-02-13T13:35:48.240Z,2.46
2017-02-13T13:37:48.265Z,2.34
2017-02-13T13:38:48.251Z,2.49
2017-02-13T13:40:02.788Z,2.45
2017-02-13T13:40:48.307Z,2.46
2017-02-13T13:41:47.919Z,2.49
2017-02-13T13:42:48.337Z,2.52
2017-02-13T13:43:48.336Z,2.49
2017-02-13T13:46:02.885Z,2.69
2017-02-13T13:46:48.393Z,2.75
2017-02-13T13:47:48.404Z,2.67
2017-02-13T13:48:48.450Z,2.6
2017-02-13T13:50:02.947Z,2.67
2017-02-13T13:50:48.441Z,2.72
2017-02-13T13:51:48.461Z,2.71
2017-02-13T13:52:48.091Z,2.66
2017-02-13T13:53:48.508Z,2.64
2017-02-13T13:54:48.496Z,2.63
2017-02-13T13:55:48.528Z,2.6
2017-02-13T13:56:48.541Z,2.56
2017-02-13T13:57:48.557Z,2.6
2017-02-13T13:58:48.587Z,2.72